sensor_id;sensor_type;location;lat;lon;timestamp;pressure;altitude;pressure_sealevel;temperature;humidity
10806;BME280;5455;53.224;6.000;2023-02-14T00:01:11;103589.81;;;2.82;100.00
10806;BME280;5455;53.224;6.000;2023-02-14T00:03:39;103583.19;;;2.78;100.00
10806;BME280;5455;53.224;6.000;2023-02-14T00:06:08;103587.44;;;2.74;100.00
10806;BME280;5455;53.224;6.000;2023-02-14T00:08:37;103580.34;;;2.73;100.00
10806;BME280;5455;53.224;6.000;2023-02-14T00:11:06;103578.09;;;2.70;100.00
10806;BME280;5455;53.224;6.000;2023-02-14T00:13:34;103570.28;;;2.62;100.00
10806;BME280;5455;53.224;6.000;2023-02-14T00:16:01;103580.13;;;2.63;100.00
10806;BME280;5455;53.224;6.000;2023-02-14T00:18:29;103572.91;;;2.57;100.00
10806;BME280;5455;53.224;6.000;2023-02-14T00:21:14;103573.72;;;2.57;100.00
10806;BME280;5455;53.224;6.000;2023-02-14T00:23:42;103574.66;;;2.63;100.00
10806;BME280;5455;53.224;6.000;2023-02-14T00:26:13;103573.84;;;2.62;100.00
10806;BME280;5455;53.224;6.000;2023-02-14T00:28:41;103573.72;;;2.57;100.00
10806;BME280;5455;53.224;6.000;2023-02-14T00:31:09;103575.25;;;2.53;100.00
10806;BME280;5455;53.224;6.000;2023-02-14T00:33:36;103574.09;;;2.49;100.00
10806;BME280;5455;53.224;6.000;2023-02-14T00:36:04;103573.38;;;2.42;100.00
10806;BME280;5455;53.224;6.000;2023-02-14T00:38:33;103565.69;;;2.39;100.00
10806;BME280;5455;53.224;6.000;2023-02-14T00:41:01;103564.03;;;2.38;100.00
10806;BME280;5455;53.224;6.000;2023-02-14T00:43:28;103564.28;;;2.37;100.00
10806;BME280;5455;53.224;6.000;2023-02-14T00:45:56;103550.31;;;2.33;100.00
10806;BME280;5455;53.224;6.000;2023-02-14T00:48:23;103552.19;;;2.33;100.00
10806;BME280;5455;53.224;6.000;2023-02-14T00:50:50;103547.22;;;2.30;100.00
10806;BME280;5455;53.224;6.000;2023-02-14T00:53:17;103550.41;;;2.27;100.00
10806;BME280;5455;53.224;6.000;2023-02-14T00:55:44;103544.63;;;2.23;100.00
10806;BME280;5455;53.224;6.000;2023-02-14T00:58:14;103552.31;;;2.26;100.00
10806;BME280;5455;53.224;6.000;2023-02-14T01:00:41;103552.41;;;2.19;100.00
10806;BME280;5455;53.224;6.000;2023-02-14T01:03:08;103548.63;;;2.09;100.00
10806;BME280;5455;53.224;6.000;2023-02-14T01:05:35;103555.97;;;2.08;100.00
10806;BME280;5455;53.224;6.000;2023-02-14T01:08:03;103556.22;;;2.07;100.00
10806;BME280;5455;53.224;6.000;2023-02-14T01:10:30;103548.16;;;2.00;100.00
10806;BME280;5455;53.224;6.000;2023-02-14T01:12:58;103551.25;;;1.92;100.00
10806;BME280;5455;53.224;6.000;2023-02-14T01:15:26;103553.59;;;1.89;100.00
10806;BME280;5455;53.224;6.000;2023-02-14T01:17:53;103550.25;;;1.87;100.00
10806;BME280;5455;53.224;6.000;2023-02-14T01:20:20;103551.56;;;1.84;100.00
10806;BME280;5455;53.224;6.000;2023-02-14T01:22:48;103549.19;;;1.76;100.00
10806;BME280;5455;53.224;6.000;2023-02-14T01:25:15;103551.91;;;1.76;100.00
10806;BME280;5455;53.224;6.000;2023-02-14T01:27:42;103551.53;;;1.73;100.00
10806;BME280;5455;53.224;6.000;2023-02-14T01:30:09;103533.91;;;1.63;100.00
10806;BME280;5455;53.224;6.000;2023-02-14T01:32:37;103541.22;;;1.63;100.00
10806;BME280;5455;53.224;6.000;2023-02-14T01:35:04;103545.03;;;1.62;100.00
10806;BME280;5455;53.224;6.000;2023-02-14T01:37:31;103541.47;;;1.61;100.00
10806;BME280;5455;53.224;6.000;2023-02-14T01:39:58;103533.31;;;1.61;100.00
10806;BME280;5455;53.224;6.000;2023-02-14T01:42:25;103533.53;;;1.60;100.00
10806;BME280;5455;53.224;6.000;2023-02-14T01:45:08;103537.69;;;1.62;100.00
10806;BME280;5455;53.224;6.000;2023-02-14T01:47:42;103533.53;;;1.60;100.00
10806;BME280;5455;53.224;6.000;2023-02-14T01:50:33;103527.28;;;1.59;100.00
10806;BME280;5455;53.224;6.000;2023-02-14T01:53:21;103526.47;;;1.59;100.00
10806;BME280;5455;53.224;6.000;2023-02-14T01:55:55;103520.19;;;1.58;100.00
10806;BME280;5455;53.224;6.000;2023-02-14T01:58:28;103520.56;;;1.62;100.00
10806;BME280;5455;53.224;6.000;2023-02-14T02:00:56;103520.31;;;1.63;100.00
10806;BME280;5455;53.224;6.000;2023-02-14T02:03:40;103521.25;;;1.69;100.00
10806;BME280;5455;53.224;6.000;2023-02-14T02:06:22;103520.22;;;1.70;100.00
10806;BME280;5455;53.224;6.000;2023-02-14T02:09:19;103516.44;;;1.71;100.00
10806;BME280;5455;53.224;6.000;2023-02-14T02:11:47;103518.06;;;1.72;100.00
10806;BME280;5455;53.224;6.000;2023-02-14T02:14:17;103519.16;;;1.71;100.00
10806;BME280;5455;53.224;6.000;2023-02-14T02:33:42;103509.09;;;1.72;100.00
10806;BME280;5455;53.224;6.000;2023-02-14T02:41:47;103498.81;;;1.74;100.00
10806;BME280;5455;53.224;6.000;2023-02-14T02:44:41;103502.84;;;1.71;100.00
10806;BME280;5455;53.224;6.000;2023-02-14T02:47:26;103500.34;;;1.70;100.00
10806;BME280;5455;53.224;6.000;2023-02-14T02:55:42;103498.22;;;1.72;100.00
10806;BME280;5455;53.224;6.000;2023-02-14T02:58:50;103491.59;;;1.67;100.00
10806;BME280;5455;53.224;6.000;2023-02-14T03:01:29;103489.72;;;1.68;100.00
10806;BME280;5455;53.224;6.000;2023-02-14T03:04:02;103491.97;;;1.71;100.00
10806;BME280;5455;53.224;6.000;2023-02-14T03:06:49;103496.22;;;1.67;100.00
10806;BME280;5455;53.224;6.000;2023-02-14T03:14:57;103499.28;;;1.59;100.00
10806;BME280;5455;53.224;6.000;2023-02-14T03:20:11;103494.31;;;1.56;100.00
10806;BME280;5455;53.224;6.000;2023-02-14T03:28:50;103494.16;;;1.51;100.00
10806;BME280;5455;53.224;6.000;2023-02-14T03:31:27;103493.47;;;1.55;100.00
10806;BME280;5455;53.224;6.000;2023-02-14T03:39:50;103490.13;;;1.53;100.00
10806;BME280;5455;53.224;6.000;2023-02-14T03:42:27;103480.34;;;1.52;100.00
10806;BME280;5455;53.224;6.000;2023-02-14T03:44:59;103479.50;;;1.52;100.00
10806;BME280;5455;53.224;6.000;2023-02-14T03:47:30;103483.16;;;1.46;100.00
10806;BME280;5455;53.224;6.000;2023-02-14T03:50:04;103479.97;;;1.49;100.00
10806;BME280;5455;53.224;6.000;2023-02-14T03:52:35;103479.03;;;1.43;100.00
10806;BME280;5455;53.224;6.000;2023-02-14T03:55:05;103467.88;;;1.33;100.00
10806;BME280;5455;53.224;6.000;2023-02-14T03:57:52;103474.88;;;1.41;100.00
10806;BME280;5455;53.224;6.000;2023-02-14T04:00:21;103471.56;;;1.39;100.00
10806;BME280;5455;53.224;6.000;2023-02-14T04:02:54;103463.66;;;1.37;100.00
10806;BME280;5455;53.224;6.000;2023-02-14T04:05:25;103471.81;;;1.37;100.00
10806;BME280;5455;53.224;6.000;2023-02-14T04:07:56;103471.19;;;1.35;100.00
10806;BME280;5455;53.224;6.000;2023-02-14T04:10:25;103467.50;;;1.30;100.00
10806;BME280;5455;53.224;6.000;2023-02-14T04:12:52;103456.97;;;1.22;100.00
10806;BME280;5455;53.224;6.000;2023-02-14T04:15:19;103470.56;;;1.22;100.00
10806;BME280;5455;53.224;6.000;2023-02-14T04:17:46;103459.22;;;1.13;100.00
10806;BME280;5455;53.224;6.000;2023-02-14T04:20:32;103461.34;;;1.11;100.00
10806;BME280;5455;53.224;6.000;2023-02-14T04:22:59;103462.59;;;1.08;100.00
10806;BME280;5455;53.224;6.000;2023-02-14T04:25:29;103458.47;;;1.06;100.00
10806;BME280;5455;53.224;6.000;2023-02-14T04:27:56;103462.09;;;1.00;100.00
10806;BME280;5455;53.224;6.000;2023-02-14T04:30:23;103461.72;;;0.96;100.00
10806;BME280;5455;53.224;6.000;2023-02-14T04:32:50;103452.16;;;0.94;100.00
10806;BME280;5455;53.224;6.000;2023-02-14T04:35:17;103461.00;;;0.89;100.00
10806;BME280;5455;53.224;6.000;2023-02-14T04:37:44;103454.75;;;0.89;100.00
10806;BME280;5455;53.224;6.000;2023-02-14T04:40:11;103457.84;;;0.92;100.00
10806;BME280;5455;53.224;6.000;2023-02-14T04:42:43;103465.06;;;0.98;100.00
10806;BME280;5455;53.224;6.000;2023-02-14T04:45:11;103461.88;;;1.01;100.00
10806;BME280;5455;53.224;6.000;2023-02-14T04:47:38;103454.31;;;1.03;100.00
10806;BME280;5455;53.224;6.000;2023-02-14T04:50:06;103455.75;;;1.06;100.00
10806;BME280;5455;53.224;6.000;2023-02-14T04:52:33;103456.59;;;1.06;100.00
10806;BME280;5455;53.224;6.000;2023-02-14T04:55:00;103456.59;;;1.06;100.00
10806;BME280;5455;53.224;6.000;2023-02-14T04:57:27;103448.44;;;1.06;100.00
10806;BME280;5455;53.224;6.000;2023-02-14T04:59:54;103454.25;;;1.10;100.00
10806;BME280;5455;53.224;6.000;2023-02-14T05:02:21;103451.66;;;1.15;100.00
10806;BME280;5455;53.224;6.000;2023-02-14T05:04:48;103444.56;;;1.14;100.00
10806;BME280;5455;53.224;6.000;2023-02-14T05:07:16;103441.50;;;1.10;100.00
10806;BME280;5455;53.224;6.000;2023-02-14T05:09:42;103447.38;;;1.07;100.00
10806;BME280;5455;53.224;6.000;2023-02-14T05:12:09;103433.09;;;1.12;100.00
10806;BME280;5455;53.224;6.000;2023-02-14T05:14:36;103445.25;;;1.09;100.00
10806;BME280;5455;53.224;6.000;2023-02-14T05:17:03;103445.72;;;1.06;100.00
10806;BME280;5455;53.224;6.000;2023-02-14T05:19:30;103448.06;;;1.03;100.00
10806;BME280;5455;53.224;6.000;2023-02-14T05:21:57;103438.75;;;0.99;100.00
10806;BME280;5455;53.224;6.000;2023-02-14T05:24:24;103440.63;;;0.98;100.00
10806;BME280;5455;53.224;6.000;2023-02-14T05:26:51;103439.19;;;0.96;100.00
10806;BME280;5455;53.224;6.000;2023-02-14T05:29:18;103435.88;;;0.94;100.00
10806;BME280;5455;53.224;6.000;2023-02-14T05:31:45;103443.81;;;0.95;100.00
10806;BME280;5455;53.224;6.000;2023-02-14T05:34:12;103447.19;;;0.91;100.00
10806;BME280;5455;53.224;6.000;2023-02-14T05:36:39;103439.50;;;0.88;100.00
10806;BME280;5455;53.224;6.000;2023-02-14T05:39:06;103433.25;;;0.87;100.00
10806;BME280;5455;53.224;6.000;2023-02-14T05:41:32;103436.19;;;0.86;100.00
10806;BME280;5455;53.224;6.000;2023-02-14T05:43:59;103431.91;;;0.78;100.00
10806;BME280;5455;53.224;6.000;2023-02-14T05:46:26;103432.97;;;0.77;100.00
10806;BME280;5455;53.224;6.000;2023-02-14T05:48:53;103433.19;;;0.76;100.00
10806;BME280;5455;53.224;6.000;2023-02-14T05:51:21;103426.13;;;0.75;100.00
10806;BME280;5455;53.224;6.000;2023-02-14T05:53:47;103430.03;;;0.79;100.00
10806;BME280;5455;53.224;6.000;2023-02-14T05:56:14;103423.09;;;0.83;100.00
10806;BME280;5455;53.224;6.000;2023-02-14T05:58:42;103423.47;;;0.86;100.00
10806;BME280;5455;53.224;6.000;2023-02-14T06:01:09;103422.06;;;0.95;100.00
10806;BME280;5455;53.224;6.000;2023-02-14T06:03:36;103423.25;;;0.99;100.00
10806;BME280;5455;53.224;6.000;2023-02-14T06:06:03;103423.72;;;0.96;100.00
10806;BME280;5455;53.224;6.000;2023-02-14T06:08:30;103425.38;;;0.97;100.00
10806;BME280;5455;53.224;6.000;2023-02-14T06:10:57;103432.00;;;1.01;100.00
10806;BME280;5455;53.224;6.000;2023-02-14T06:13:24;103432.38;;;1.05;100.00
10806;BME280;5455;53.224;6.000;2023-02-14T06:15:51;103429.78;;;1.10;100.00
10806;BME280;5455;53.224;6.000;2023-02-14T06:18:18;103437.69;;;1.11;100.00
10806;BME280;5455;53.224;6.000;2023-02-14T06:20:45;103439.81;;;1.09;100.00
10806;BME280;5455;53.224;6.000;2023-02-14T06:23:12;103437.56;;;1.06;100.00
10806;BME280;5455;53.224;6.000;2023-02-14T06:25:39;103436.97;;;1.04;100.00
10806;BME280;5455;53.224;6.000;2023-02-14T06:28:06;103438.63;;;1.05;100.00
10806;BME280;5455;53.224;6.000;2023-02-14T06:30:33;103443.00;;;1.06;100.00
10806;BME280;5455;53.224;6.000;2023-02-14T06:33:00;103449.03;;;1.08;100.00
10806;BME280;5455;53.224;6.000;2023-02-14T06:35:27;103438.16;;;1.08;100.00
10806;BME280;5455;53.224;6.000;2023-02-14T06:37:54;103448.69;;;1.05;100.00
10806;BME280;5455;53.224;6.000;2023-02-14T06:40:21;103445.34;;;1.03;100.00
10806;BME280;5455;53.224;6.000;2023-02-14T06:42:49;103439.69;;;1.04;100.00
10806;BME280;5455;53.224;6.000;2023-02-14T06:45:16;103439.81;;;1.09;100.00
10806;BME280;5455;53.224;6.000;2023-02-14T06:47:44;103440.88;;;1.08;100.00
10806;BME280;5455;53.224;6.000;2023-02-14T06:50:11;103434.84;;;1.06;100.00
10806;BME280;5455;53.224;6.000;2023-02-14T06:52:38;103430.72;;;1.04;100.00
10806;BME280;5455;53.224;6.000;2023-02-14T06:55:06;103439.91;;;1.03;100.00
10806;BME280;5455;53.224;6.000;2023-02-14T06:57:33;103433.66;;;1.02;100.00
10806;BME280;5455;53.224;6.000;2023-02-14T07:00:00;103436.38;;;1.02;100.00
10806;BME280;5455;53.224;6.000;2023-02-14T07:02:27;103432.00;;;1.01;100.00
10806;BME280;5455;53.224;6.000;2023-02-14T07:04:54;103442.41;;;1.04;100.00
10806;BME280;5455;53.224;6.000;2023-02-14T07:07:21;103437.09;;;1.09;100.00
10806;BME280;5455;53.224;6.000;2023-02-14T07:09:48;103441.03;;;1.14;100.00
10806;BME280;5455;53.224;6.000;2023-02-14T07:12:15;103443.50;;;1.15;100.00
10806;BME280;5455;53.224;6.000;2023-02-14T07:14:41;103435.97;;;1.17;100.00
10806;BME280;5455;53.224;6.000;2023-02-14T07:17:08;103432.16;;;1.18;100.00
10806;BME280;5455;53.224;6.000;2023-02-14T07:19:35;103436.66;;;1.24;100.00
10806;BME280;5455;53.224;6.000;2023-02-14T07:22:02;103437.28;;;1.26;100.00
10806;BME280;5455;53.224;6.000;2023-02-14T07:24:29;103432.91;;;1.25;100.00
10806;BME280;5455;53.224;6.000;2023-02-14T07:26:57;103432.66;;;1.27;100.00
10806;BME280;5455;53.224;6.000;2023-02-14T07:29:26;103433.00;;;1.30;100.00
10806;BME280;5455;53.224;6.000;2023-02-14T07:31:53;103431.13;;;1.31;100.00
10806;BME280;5455;53.224;6.000;2023-02-14T07:34:20;103433.84;;;1.31;100.00
10806;BME280;5455;53.224;6.000;2023-02-14T07:36:47;103436.31;;;1.32;100.00
10806;BME280;5455;53.224;6.000;2023-02-14T07:39:14;103436.56;;;1.31;100.00
10806;BME280;5455;53.224;6.000;2023-02-14T07:41:41;103434.81;;;1.36;100.00
10806;BME280;5455;53.224;6.000;2023-02-14T07:44:09;103431.88;;;1.38;100.00
10806;BME280;5455;53.224;6.000;2023-02-14T07:46:36;103435.06;;;1.46;100.00
10806;BME280;5455;53.224;6.000;2023-02-14T07:49:03;103430.22;;;1.48;100.00
10806;BME280;5455;53.224;6.000;2023-02-14T07:51:30;103428.91;;;1.51;100.00
10806;BME280;5455;53.224;6.000;2023-02-14T07:53:57;103436.97;;;1.57;100.00
10806;BME280;5455;53.224;6.000;2023-02-14T07:56:24;103432.09;;;1.59;100.00
10806;BME280;5455;53.224;6.000;2023-02-14T07:58:51;103431.88;;;1.61;100.00
10806;BME280;5455;53.224;6.000;2023-02-14T08:01:19;103429.06;;;1.56;100.00
10806;BME280;5455;53.224;6.000;2023-02-14T08:03:46;103438.50;;;1.65;100.00
10806;BME280;5455;53.224;6.000;2023-02-14T08:06:18;103441.81;;;1.67;100.00
10806;BME280;5455;53.224;6.000;2023-02-14T08:08:45;103445.38;;;1.67;100.00
10806;BME280;5455;53.224;6.000;2023-02-14T08:11:13;103442.41;;;1.69;100.00
10806;BME280;5455;53.224;6.000;2023-02-14T08:14:00;103441.09;;;1.72;100.00
10806;BME280;5455;53.224;6.000;2023-02-14T08:16:27;103443.69;;;1.78;100.00
10806;BME280;5455;53.224;6.000;2023-02-14T08:18:54;103442.88;;;1.78;100.00
10806;BME280;5455;53.224;6.000;2023-02-14T08:21:21;103447.38;;;1.84;100.00
10806;BME280;5455;53.224;6.000;2023-02-14T08:23:48;103439.56;;;1.87;100.00
10806;BME280;5455;53.224;6.000;2023-02-14T08:26:15;103438.41;;;1.95;100.00
10806;BME280;5455;53.224;6.000;2023-02-14T08:28:43;103446.66;;;2.00;100.00
10806;BME280;5455;53.224;6.000;2023-02-14T08:31:11;103437.44;;;2.01;100.00
10806;BME280;5455;53.224;6.000;2023-02-14T08:33:38;103441.47;;;2.10;100.00
10806;BME280;5455;53.224;6.000;2023-02-14T08:36:05;103444.84;;;2.17;100.00
10806;BME280;5455;53.224;6.000;2023-02-14T08:38:32;103442.59;;;2.26;100.00
10806;BME280;5455;53.224;6.000;2023-02-14T08:41:00;103437.28;;;2.31;100.00
10806;BME280;5455;53.224;6.000;2023-02-14T08:43:32;103435.50;;;2.36;100.00
10806;BME280;5455;53.224;6.000;2023-02-14T08:46:00;103438.78;;;2.38;100.00
10806;BME280;5455;53.224;6.000;2023-02-14T08:48:27;103436.66;;;2.40;100.00
10806;BME280;5455;53.224;6.000;2023-02-14T08:50:54;103443.28;;;2.44;100.00
10806;BME280;5455;53.224;6.000;2023-02-14T08:53:21;103434.41;;;2.49;100.00
10806;BME280;5455;53.224;6.000;2023-02-14T08:55:48;103434.50;;;2.54;100.00
10806;BME280;5455;53.224;6.000;2023-02-14T08:58:15;103436.81;;;2.62;100.00
10806;BME280;5455;53.224;6.000;2023-02-14T09:00:42;103434.53;;;2.70;100.00
10806;BME280;5455;53.224;6.000;2023-02-14T09:03:09;103432.28;;;2.79;100.00
10806;BME280;5455;53.224;6.000;2023-02-14T09:05:36;103431.03;;;2.87;100.00
10806;BME280;5455;53.224;6.000;2023-02-14T09:08:03;103435.88;;;2.96;100.00
10806;BME280;5455;53.224;6.000;2023-02-14T09:10:31;103440.41;;;3.07;100.00
10806;BME280;5455;53.224;6.000;2023-02-14T09:12:58;103437.19;;;3.10;100.00
10806;BME280;5455;53.224;6.000;2023-02-14T09:15:26;103433.41;;;3.11;100.00
10806;BME280;5455;53.224;6.000;2023-02-14T09:17:53;103433.25;;;3.18;100.00
10806;BME280;5455;53.224;6.000;2023-02-14T09:20:20;103429.56;;;3.24;100.00
10806;BME280;5455;53.224;6.000;2023-02-14T09:22:47;103434.81;;;3.30;100.00
10806;BME280;5455;53.224;6.000;2023-02-14T09:25:15;103426.59;;;3.42;100.00
10806;BME280;5455;53.224;6.000;2023-02-14T09:27:42;103422.88;;;3.48;100.00
10806;BME280;5455;53.224;6.000;2023-02-14T09:30:09;103422.44;;;3.56;100.00
10806;BME280;5455;53.224;6.000;2023-02-14T09:32:36;103424.50;;;3.66;100.00
10806;BME280;5455;53.224;6.000;2023-02-14T09:35:03;103418.06;;;3.72;100.00
10806;BME280;5455;53.224;6.000;2023-02-14T09:37:31;103418.13;;;3.77;100.00
10806;BME280;5455;53.224;6.000;2023-02-14T09:39:57;103417.69;;;3.85;100.00
10806;BME280;5455;53.224;6.000;2023-02-14T09:45:09;103425.03;;;4.01;100.00
10806;BME280;5455;53.224;6.000;2023-02-14T09:50:36;103427.72;;;4.18;100.00
10806;BME280;5455;53.224;6.000;2023-02-14T09:53:17;103427.84;;;4.28;100.00
10806;BME280;5455;53.224;6.000;2023-02-14T09:56:09;103430.72;;;4.38;100.00
10806;BME280;5455;53.224;6.000;2023-02-14T10:01:30;103427.97;;;4.60;100.00
10806;BME280;5455;53.224;6.000;2023-02-14T10:07:12;103429.28;;;4.79;100.00
10806;BME280;5455;53.224;6.000;2023-02-14T10:12:21;103426.19;;;4.97;100.00
10806;BME280;5455;53.224;6.000;2023-02-14T10:14:52;103421.91;;;5.06;100.00
10806;BME280;5455;53.224;6.000;2023-02-14T10:20:03;103424.25;;;5.19;100.00
10806;BME280;5455;53.224;6.000;2023-02-14T10:22:43;103425.41;;;5.28;100.00
10806;BME280;5455;53.224;6.000;2023-02-14T10:25:20;103432.66;;;5.44;100.00
10806;BME280;5455;53.224;6.000;2023-02-14T10:27:48;103430.53;;;5.51;100.00
10806;BME280;5455;53.224;6.000;2023-02-14T10:30:20;103428.63;;;5.52;100.00
10806;BME280;5455;53.224;6.000;2023-02-14T10:33:12;103433.03;;;5.58;100.00
10806;BME280;5455;53.224;6.000;2023-02-14T10:35:50;103426.00;;;5.67;100.00
10806;BME280;5455;53.224;6.000;2023-02-14T10:38:46;103430.44;;;5.78;100.00
10806;BME280;5455;53.224;6.000;2023-02-14T10:54:20;103410.28;;;6.36;100.00
10806;BME280;5455;53.224;6.000;2023-02-14T10:57:03;103412.25;;;6.46;100.00
10806;BME280;5455;53.224;6.000;2023-02-14T10:59:44;103402.91;;;6.52;100.00
10806;BME280;5455;53.224;6.000;2023-02-14T11:02:14;103402.69;;;6.63;100.00
10806;BME280;5455;53.224;6.000;2023-02-14T11:04:42;103399.41;;;6.72;100.00
10806;BME280;5455;53.224;6.000;2023-02-14T11:07:13;103402.16;;;6.77;100.00
10806;BME280;5455;53.224;6.000;2023-02-14T11:09:41;103396.97;;;6.85;100.00
10806;BME280;5455;53.224;6.000;2023-02-14T11:12:08;103398.91;;;6.95;100.00
10806;BME280;5455;53.224;6.000;2023-02-14T11:14:38;103396.75;;;7.02;100.00
10806;BME280;5455;53.224;6.000;2023-02-14T11:17:26;103398.38;;;7.08;100.00
10806;BME280;5455;53.224;6.000;2023-02-14T11:20:00;103412.66;;;7.20;100.00
10806;BME280;5455;53.224;6.000;2023-02-14T11:22:30;103401.69;;;7.25;100.00
10806;BME280;5455;53.224;6.000;2023-02-14T11:27:45;103400.34;;;7.33;100.00
10806;BME280;5455;53.224;6.000;2023-02-14T11:32:53;103394.00;;;7.52;100.00
10806;BME280;5455;53.224;6.000;2023-02-14T11:35:27;103396.16;;;7.60;100.00
10806;BME280;5455;53.224;6.000;2023-02-14T11:38:02;103384.09;;;7.66;100.00
10806;BME280;5455;53.224;6.000;2023-02-14T11:40:34;103378.59;;;7.76;100.00
10806;BME280;5455;53.224;6.000;2023-02-14T11:45:43;103373.03;;;8.02;100.00
10806;BME280;5455;53.224;6.000;2023-02-14T11:48:25;103370.78;;;8.09;100.00
10806;BME280;5455;53.224;6.000;2023-02-14T11:51:11;103365.25;;;8.19;100.00
10806;BME280;5455;53.224;6.000;2023-02-14T11:53:47;103363.03;;;8.21;100.00
10806;BME280;5455;53.224;6.000;2023-02-14T11:56:17;103366.34;;;8.23;100.00
10806;BME280;5455;53.224;6.000;2023-02-14T12:01:23;103361.28;;;8.50;100.00
10806;BME280;5455;53.224;6.000;2023-02-14T12:03:54;103357.41;;;8.56;100.00
10806;BME280;5455;53.224;6.000;2023-02-14T12:06:28;103347.78;;;8.59;100.00
10806;BME280;5455;53.224;6.000;2023-02-14T12:14:24;103339.63;;;8.82;100.00
10806;BME280;5455;53.224;6.000;2023-02-14T12:19:34;103337.25;;;9.05;100.00
10806;BME280;5455;53.224;6.000;2023-02-14T12:22:04;103332.19;;;9.17;100.00
10806;BME280;5455;53.224;6.000;2023-02-14T12:24:48;103335.50;;;9.19;100.00
10806;BME280;5455;53.224;6.000;2023-02-14T12:27:44;103330.19;;;9.27;100.00
10806;BME280;5455;53.224;6.000;2023-02-14T12:30:22;103335.13;;;9.30;100.00
10806;BME280;5455;53.224;6.000;2023-02-14T12:32:52;103328.72;;;9.35;100.00
10806;BME280;5455;53.224;6.000;2023-02-14T12:53:52;103304.78;;;9.59;100.00
10806;BME280;5455;53.224;6.000;2023-02-14T12:59:18;103302.19;;;9.73;100.00
10806;BME280;5455;53.224;6.000;2023-02-14T13:07:40;103304.09;;;9.72;100.00
10806;BME280;5455;53.224;6.000;2023-02-14T13:10:22;103300.41;;;9.82;100.00
10806;BME280;5455;53.224;6.000;2023-02-14T13:18:58;103279.06;;;9.69;100.00
10806;BME280;5455;53.224;6.000;2023-02-14T13:21:30;103280.34;;;9.76;100.00
10806;BME280;5455;53.224;6.000;2023-02-14T13:24:20;103274.19;;;9.84;100.00
10806;BME280;5455;53.224;6.000;2023-02-14T13:26:52;103261.41;;;9.93;100.00
10806;BME280;5455;53.224;6.000;2023-02-14T13:29:27;103264.16;;;9.93;100.00
10806;BME280;5455;53.224;6.000;2023-02-14T13:31:59;103257.97;;;10.02;100.00
10806;BME280;5455;53.224;6.000;2023-02-14T13:34:34;103257.38;;;10.05;100.00
10806;BME280;5455;53.224;6.000;2023-02-14T13:37:05;103252.19;;;10.03;100.00
10806;BME280;5455;53.224;6.000;2023-02-14T13:40:14;103240.09;;;9.99;100.00
10806;BME280;5455;53.224;6.000;2023-02-14T13:42:50;103234.22;;;10.06;100.00
10806;BME280;5455;53.224;6.000;2023-02-14T13:48:10;103238.81;;;10.15;100.00
10806;BME280;5455;53.224;6.000;2023-02-14T13:50:48;103235.47;;;10.18;100.00
10806;BME280;5455;53.224;6.000;2023-02-14T13:53:41;103230.16;;;10.22;100.00
10806;BME280;5455;53.224;6.000;2023-02-14T14:04:31;103214.81;;;10.16;100.00
10806;BME280;5455;53.224;6.000;2023-02-14T14:25:38;103212.72;;;10.26;100.00
10806;BME280;5455;53.224;6.000;2023-02-14T14:28:10;103207.81;;;10.23;100.00
10806;BME280;5455;53.224;6.000;2023-02-14T14:30:42;103207.50;;;10.25;100.00
10806;BME280;5455;53.224;6.000;2023-02-14T14:33:20;103210.84;;;10.22;100.00
10806;BME280;5455;53.224;6.000;2023-02-14T14:35:56;103210.06;;;10.21;100.00
10806;BME280;5455;53.224;6.000;2023-02-14T14:38:25;103210.06;;;10.21;100.00
10806;BME280;5455;53.224;6.000;2023-02-14T14:40:52;103206.75;;;10.19;100.00
10806;BME280;5455;53.224;6.000;2023-02-14T14:43:33;103210.84;;;10.22;100.00
10806;BME280;5455;53.224;6.000;2023-02-14T14:46:03;103212.59;;;10.18;100.00
10806;BME280;5455;53.224;6.000;2023-02-14T14:48:39;103209.00;;;10.17;100.00
10806;BME280;5455;53.224;6.000;2023-02-14T14:51:36;103214.22;;;10.19;100.00
10806;BME280;5455;53.224;6.000;2023-02-14T14:54:20;103207.94;;;10.13;100.00
10806;BME280;5455;53.224;6.000;2023-02-14T14:56:58;103208.81;;;10.09;100.00
10806;BME280;5455;53.224;6.000;2023-02-14T14:59:31;103206.25;;;10.17;100.00
10806;BME280;5455;53.224;6.000;2023-02-14T15:02:02;103207.34;;;10.16;100.00
10806;BME280;5455;53.224;6.000;2023-02-14T15:07:16;103204.66;;;10.11;100.00
10806;BME280;5455;53.224;6.000;2023-02-14T15:09:44;103204.41;;;10.08;100.00
10806;BME280;5455;53.224;6.000;2023-02-14T15:12:16;103199.00;;;10.03;100.00
10806;BME280;5455;53.224;6.000;2023-02-14T15:15:05;103194.06;;;10.00;100.00
10806;BME280;5455;53.224;6.000;2023-02-14T15:17:36;103199.63;;;9.94;100.00
10806;BME280;5455;53.224;6.000;2023-02-14T15:20:08;103200.78;;;9.93;100.00
10806;BME280;5455;53.224;6.000;2023-02-14T15:25:10;103193.47;;;9.84;100.00
10806;BME280;5455;53.224;6.000;2023-02-14T15:27:39;103191.66;;;9.74;100.00
10806;BME280;5455;53.224;6.000;2023-02-14T15:30:31;103196.41;;;9.69;100.00
10806;BME280;5455;53.224;6.000;2023-02-14T15:33:01;103187.91;;;9.65;100.00
10806;BME280;5455;53.224;6.000;2023-02-14T15:35:33;103199.00;;;9.60;100.00
10806;BME280;5455;53.224;6.000;2023-02-14T15:38:04;103195.78;;;9.53;100.00
10806;BME280;5455;53.224;6.000;2023-02-14T15:40:33;103181.56;;;9.46;100.00
10806;BME280;5455;53.224;6.000;2023-02-14T15:45:50;103175.66;;;9.34;100.00
10806;BME280;5455;53.224;6.000;2023-02-14T15:48:29;103181.75;;;9.31;100.00
10806;BME280;5455;53.224;6.000;2023-02-14T15:51:00;103187.63;;;9.24;100.00
10806;BME280;5455;53.224;6.000;2023-02-14T15:53:48;103186.84;;;9.19;100.00
10806;BME280;5455;53.224;6.000;2023-02-14T15:56:23;103185.84;;;9.10;100.00
10806;BME280;5455;53.224;6.000;2023-02-14T15:58:59;103184.84;;;9.01;100.00
10806;BME280;5455;53.224;6.000;2023-02-14T16:01:28;103191.53;;;8.90;100.00
10806;BME280;5455;53.224;6.000;2023-02-14T16:03:59;103183.94;;;8.81;100.00
10806;BME280;5455;53.224;6.000;2023-02-14T16:07:02;103182.38;;;8.70;100.00
10806;BME280;5455;53.224;6.000;2023-02-14T16:09:31;103188.50;;;8.62;100.00